FMO weather

Münster Osnabrück Airport
Münster, North Rhine-Westphalia, Germany

Public forecast

Using degrees Celsius for public forecast. Weather courtesy of forecast.io.

METAR (pilot weather report)

Retrieved 2018/10/20 12:20 UTC (27 minutes ago):

EDDG 201220Z VRB02KT 9999 FEW035 15/06 Q1030 NOSIG

TAF (pilot weather forecast)

Retrieved 2018/10/20 12:27 UTC (20 minutes ago):

TAF EDDG 201100Z 2012/2112 VRB02KT CAVOK BECMG 2101/2104 1200 BCFG TEMPO 2104/2108 0500 FG OVC000 BECMG 2107/2110 9999